sensor_id;sensor_type;location;lat;lon;timestamp;temperature;humidity
52575;DHT22;38468;48.114;-1.684;2023-11-21T00:00:05;13.40;82.00
52575;DHT22;38468;48.114;-1.684;2023-11-21T00:02:19;13.40;81.90
52575;DHT22;38468;48.114;-1.684;2023-11-21T00:04:27;13.40;81.90
52575;DHT22;38468;48.114;-1.684;2023-11-21T00:06:28;13.40;82.00
52575;DHT22;38468;48.114;-1.684;2023-11-21T00:08:30;13.40;82.00
52575;DHT22;38468;48.114;-1.684;2023-11-21T00:10:30;13.40;82.00
52575;DHT22;38468;48.114;-1.684;2023-11-21T00:12:31;13.40;82.00
52575;DHT22;38468;48.114;-1.684;2023-11-21T00:14:33;13.40;82.00
52575;DHT22;38468;48.114;-1.684;2023-11-21T00:16:34;13.40;82.00
52575;DHT22;38468;48.114;-1.684;2023-11-21T00:18:34;13.40;82.00
52575;DHT22;38468;48.114;-1.684;2023-11-21T00:20:36;13.40;82.00
52575;DHT22;38468;48.114;-1.684;2023-11-21T00:22:37;13.40;82.00
52575;DHT22;38468;48.114;-1.684;2023-11-21T00:24:38;13.40;82.00
52575;DHT22;38468;48.114;-1.684;2023-11-21T00:26:39;13.30;82.10
52575;DHT22;38468;48.114;-1.684;2023-11-21T00:28:40;13.30;82.10
52575;DHT22;38468;48.114;-1.684;2023-11-21T00:30:40;13.40;82.10
52575;DHT22;38468;48.114;-1.684;2023-11-21T00:32:41;13.30;82.00
52575;DHT22;38468;48.114;-1.684;2023-11-21T00:34:42;13.30;82.10
52575;DHT22;38468;48.114;-1.684;2023-11-21T00:36:42;13.30;82.10
52575;DHT22;38468;48.114;-1.684;2023-11-21T00:38:43;13.30;82.00
52575;DHT22;38468;48.114;-1.684;2023-11-21T00:40:44;13.30;82.00
52575;DHT22;38468;48.114;-1.684;2023-11-21T00:42:45;13.30;82.00
52575;DHT22;38468;48.114;-1.684;2023-11-21T00:44:46;13.30;82.00
52575;DHT22;38468;48.114;-1.684;2023-11-21T00:46:47;13.20;82.00
52575;DHT22;38468;48.114;-1.684;2023-11-21T00:48:47;13.20;82.10
52575;DHT22;38468;48.114;-1.684;2023-11-21T00:50:48;13.20;82.10
52575;DHT22;38468;48.114;-1.684;2023-11-21T00:52:49;13.20;82.00
52575;DHT22;38468;48.114;-1.684;2023-11-21T00:54:50;13.20;82.00
52575;DHT22;38468;48.114;-1.684;2023-11-21T00:56:50;13.20;82.00
52575;DHT22;38468;48.114;-1.684;2023-11-21T00:58:51;13.20;82.00
52575;DHT22;38468;48.114;-1.684;2023-11-21T01:00:52;13.10;82.00
52575;DHT22;38468;48.114;-1.684;2023-11-21T01:02:53;13.10;82.00
52575;DHT22;38468;48.114;-1.684;2023-11-21T01:04:53;13.10;82.10
52575;DHT22;38468;48.114;-1.684;2023-11-21T01:06:54;13.10;82.10
52575;DHT22;38468;48.114;-1.684;2023-11-21T01:08:55;13.00;82.10
52575;DHT22;38468;48.114;-1.684;2023-11-21T01:10:56;13.00;82.10
52575;DHT22;38468;48.114;-1.684;2023-11-21T01:12:56;13.00;82.10
52575;DHT22;38468;48.114;-1.684;2023-11-21T01:14:58;13.00;82.00
52575;DHT22;38468;48.114;-1.684;2023-11-21T01:17:00;13.00;82.10
52575;DHT22;38468;48.114;-1.684;2023-11-21T01:19:01;13.00;82.10
52575;DHT22;38468;48.114;-1.684;2023-11-21T01:21:02;13.00;82.10
52575;DHT22;38468;48.114;-1.684;2023-11-21T01:23:03;12.90;82.10
52575;DHT22;38468;48.114;-1.684;2023-11-21T01:25:04;12.90;82.10
52575;DHT22;38468;48.114;-1.684;2023-11-21T01:27:07;13.00;82.10
52575;DHT22;38468;48.114;-1.684;2023-11-21T01:29:09;12.90;82.10
52575;DHT22;38468;48.114;-1.684;2023-11-21T01:31:09;12.90;82.10
52575;DHT22;38468;48.114;-1.684;2023-11-21T01:33:10;12.90;82.10
52575;DHT22;38468;48.114;-1.684;2023-11-21T01:35:11;12.90;82.10
52575;DHT22;38468;48.114;-1.684;2023-11-21T01:37:11;12.90;82.10
52575;DHT22;38468;48.114;-1.684;2023-11-21T01:39:12;12.80;82.10
52575;DHT22;38468;48.114;-1.684;2023-11-21T01:41:15;12.80;82.10
52575;DHT22;38468;48.114;-1.684;2023-11-21T01:43:16;12.80;82.10
52575;DHT22;38468;48.114;-1.684;2023-11-21T01:45:17;12.80;82.10
52575;DHT22;38468;48.114;-1.684;2023-11-21T01:47:17;12.80;82.10
52575;DHT22;38468;48.114;-1.684;2023-11-21T01:49:18;12.80;82.20
52575;DHT22;38468;48.114;-1.684;2023-11-21T01:51:20;12.80;82.20
52575;DHT22;38468;48.114;-1.684;2023-11-21T01:53:21;12.80;82.20
52575;DHT22;38468;48.114;-1.684;2023-11-21T01:55:22;12.80;82.20
52575;DHT22;38468;48.114;-1.684;2023-11-21T01:57:22;12.80;82.30
52575;DHT22;38468;48.114;-1.684;2023-11-21T01:59:23;12.80;82.30
52575;DHT22;38468;48.114;-1.684;2023-11-21T02:01:26;12.70;82.30
52575;DHT22;38468;48.114;-1.684;2023-11-21T02:03:27;12.80;82.40
52575;DHT22;38468;48.114;-1.684;2023-11-21T02:05:28;12.70;82.40
52575;DHT22;38468;48.114;-1.684;2023-11-21T02:07:29;12.70;82.40
52575;DHT22;38468;48.114;-1.684;2023-11-21T02:09:32;12.70;82.40
52575;DHT22;38468;48.114;-1.684;2023-11-21T02:11:34;12.70;82.40
52575;DHT22;38468;48.114;-1.684;2023-11-21T02:13:35;12.70;82.40
52575;DHT22;38468;48.114;-1.684;2023-11-21T02:15:35;12.70;82.40
52575;DHT22;38468;48.114;-1.684;2023-11-21T02:17:36;12.70;82.40
52575;DHT22;38468;48.114;-1.684;2023-11-21T02:19:37;12.70;82.40
52575;DHT22;38468;48.114;-1.684;2023-11-21T02:21:39;12.70;82.40
52575;DHT22;38468;48.114;-1.684;2023-11-21T02:23:41;12.70;82.40
52575;DHT22;38468;48.114;-1.684;2023-11-21T02:25:44;12.60;82.40
52575;DHT22;38468;48.114;-1.684;2023-11-21T02:27:45;12.60;82.40
52575;DHT22;38468;48.114;-1.684;2023-11-21T02:29:48;12.60;82.30
52575;DHT22;38468;48.114;-1.684;2023-11-21T02:31:51;12.60;82.40
52575;DHT22;38468;48.114;-1.684;2023-11-21T02:33:52;12.60;82.40
52575;DHT22;38468;48.114;-1.684;2023-11-21T02:35:53;12.60;82.30
52575;DHT22;38468;48.114;-1.684;2023-11-21T02:37:55;12.60;82.30
52575;DHT22;38468;48.114;-1.684;2023-11-21T02:39:55;12.50;82.30
52575;DHT22;38468;48.114;-1.684;2023-11-21T02:41:56;12.60;82.30
52575;DHT22;38468;48.114;-1.684;2023-11-21T02:43:57;12.50;82.30
52575;DHT22;38468;48.114;-1.684;2023-11-21T02:45:57;12.50;82.30
52575;DHT22;38468;48.114;-1.684;2023-11-21T02:47:58;12.40;82.30
52575;DHT22;38468;48.114;-1.684;2023-11-21T02:49:59;12.50;82.30
52575;DHT22;38468;48.114;-1.684;2023-11-21T02:52:00;12.50;82.30
52575;DHT22;38468;48.114;-1.684;2023-11-21T02:54:01;12.50;82.30
52575;DHT22;38468;48.114;-1.684;2023-11-21T02:56:03;12.50;82.30
52575;DHT22;38468;48.114;-1.684;2023-11-21T02:58:04;12.40;82.30
52575;DHT22;38468;48.114;-1.684;2023-11-21T03:00:05;12.40;82.30
52575;DHT22;38468;48.114;-1.684;2023-11-21T03:02:08;12.40;82.30
52575;DHT22;38468;48.114;-1.684;2023-11-21T03:04:09;12.40;82.30
52575;DHT22;38468;48.114;-1.684;2023-11-21T03:06:10;12.40;82.20
52575;DHT22;38468;48.114;-1.684;2023-11-21T03:08:11;12.40;82.20
52575;DHT22;38468;48.114;-1.684;2023-11-21T03:10:11;12.40;82.30
52575;DHT22;38468;48.114;-1.684;2023-11-21T03:12:12;12.40;82.30
52575;DHT22;38468;48.114;-1.684;2023-11-21T03:14:13;12.40;82.30
52575;DHT22;38468;48.114;-1.684;2023-11-21T03:16:15;12.40;82.30
52575;DHT22;38468;48.114;-1.684;2023-11-21T03:18:15;12.40;82.30
52575;DHT22;38468;48.114;-1.684;2023-11-21T03:20:16;12.40;82.30
52575;DHT22;38468;48.114;-1.684;2023-11-21T03:22:17;12.40;82.30
52575;DHT22;38468;48.114;-1.684;2023-11-21T03:24:17;12.40;82.30
52575;DHT22;38468;48.114;-1.684;2023-11-21T03:26:19;12.40;82.30
52575;DHT22;38468;48.114;-1.684;2023-11-21T03:28:20;12.40;82.20
52575;DHT22;38468;48.114;-1.684;2023-11-21T03:30:21;12.40;82.30
52575;DHT22;38468;48.114;-1.684;2023-11-21T03:32:21;12.40;82.30
52575;DHT22;38468;48.114;-1.684;2023-11-21T03:34:27;12.40;82.40
52575;DHT22;38468;48.114;-1.684;2023-11-21T03:36:27;12.30;82.40
52575;DHT22;38468;48.114;-1.684;2023-11-21T03:38:28;12.30;82.40
52575;DHT22;38468;48.114;-1.684;2023-11-21T03:40:28;12.30;82.40
52575;DHT22;38468;48.114;-1.684;2023-11-21T03:42:29;12.30;82.40
52575;DHT22;38468;48.114;-1.684;2023-11-21T03:44:30;12.40;82.40
52575;DHT22;38468;48.114;-1.684;2023-11-21T03:46:30;12.30;82.40
52575;DHT22;38468;48.114;-1.684;2023-11-21T03:48:31;12.30;82.40
52575;DHT22;38468;48.114;-1.684;2023-11-21T03:50:33;12.30;82.40
52575;DHT22;38468;48.114;-1.684;2023-11-21T03:52:33;12.30;82.40
52575;DHT22;38468;48.114;-1.684;2023-11-21T03:54:35;12.30;82.40
52575;DHT22;38468;48.114;-1.684;2023-11-21T03:56:36;12.30;82.40
52575;DHT22;38468;48.114;-1.684;2023-11-21T03:58:37;12.40;82.40
52575;DHT22;38468;48.114;-1.684;2023-11-21T04:00:37;12.40;82.40
52575;DHT22;38468;48.114;-1.684;2023-11-21T04:02:38;12.40;82.40
52575;DHT22;38468;48.114;-1.684;2023-11-21T04:04:39;12.40;82.40
52575;DHT22;38468;48.114;-1.684;2023-11-21T04:06:41;12.40;82.40
52575;DHT22;38468;48.114;-1.684;2023-11-21T04:08:42;12.40;82.40
52575;DHT22;38468;48.114;-1.684;2023-11-21T04:10:42;12.40;82.40
52575;DHT22;38468;48.114;-1.684;2023-11-21T04:12:43;12.40;82.40
52575;DHT22;38468;48.114;-1.684;2023-11-21T04:14:44;12.40;82.50
52575;DHT22;38468;48.114;-1.684;2023-11-21T04:16:45;12.50;82.50
52575;DHT22;38468;48.114;-1.684;2023-11-21T04:18:45;12.50;82.40
52575;DHT22;38468;48.114;-1.684;2023-11-21T04:20:46;12.50;82.40
52575;DHT22;38468;48.114;-1.684;2023-11-21T04:22:48;12.50;82.40
52575;DHT22;38468;48.114;-1.684;2023-11-21T04:24:49;12.50;82.30
52575;DHT22;38468;48.114;-1.684;2023-11-21T04:26:49;12.40;82.30
52575;DHT22;38468;48.114;-1.684;2023-11-21T04:28:50;12.40;82.20
52575;DHT22;38468;48.114;-1.684;2023-11-21T04:30:51;12.40;82.20
52575;DHT22;38468;48.114;-1.684;2023-11-21T04:32:51;12.40;82.20
52575;DHT22;38468;48.114;-1.684;2023-11-21T04:34:52;12.40;82.20
52575;DHT22;38468;48.114;-1.684;2023-11-21T04:36:53;12.40;82.20
52575;DHT22;38468;48.114;-1.684;2023-11-21T04:38:53;12.40;82.20
52575;DHT22;38468;48.114;-1.684;2023-11-21T04:40:54;12.40;82.20
52575;DHT22;38468;48.114;-1.684;2023-11-21T04:42:54;12.40;82.20
52575;DHT22;38468;48.114;-1.684;2023-11-21T04:44:55;12.40;82.20
52575;DHT22;38468;48.114;-1.684;2023-11-21T04:46:55;12.30;82.20
52575;DHT22;38468;48.114;-1.684;2023-11-21T04:48:56;12.30;82.20
52575;DHT22;38468;48.114;-1.684;2023-11-21T04:50:57;12.30;82.20
52575;DHT22;38468;48.114;-1.684;2023-11-21T04:52:57;12.20;82.20
52575;DHT22;38468;48.114;-1.684;2023-11-21T04:54:58;12.30;82.20
52575;DHT22;38468;48.114;-1.684;2023-11-21T04:56:59;12.20;82.30
52575;DHT22;38468;48.114;-1.684;2023-11-21T04:59:00;12.30;82.30
52575;DHT22;38468;48.114;-1.684;2023-11-21T05:01:01;12.30;82.20
52575;DHT22;38468;48.114;-1.684;2023-11-21T05:03:02;12.30;82.30
52575;DHT22;38468;48.114;-1.684;2023-11-21T05:05:04;12.30;82.30
52575;DHT22;38468;48.114;-1.684;2023-11-21T05:07:06;12.30;82.30
52575;DHT22;38468;48.114;-1.684;2023-11-21T05:09:06;12.30;82.30
52575;DHT22;38468;48.114;-1.684;2023-11-21T05:11:12;12.30;82.30
52575;DHT22;38468;48.114;-1.684;2023-11-21T05:13:12;12.40;82.30
52575;DHT22;38468;48.114;-1.684;2023-11-21T05:15:14;12.40;82.40
52575;DHT22;38468;48.114;-1.684;2023-11-21T05:17:15;12.40;82.40
52575;DHT22;38468;48.114;-1.684;2023-11-21T05:19:16;12.30;82.40
52575;DHT22;38468;48.114;-1.684;2023-11-21T05:21:16;12.40;82.40
52575;DHT22;38468;48.114;-1.684;2023-11-21T05:23:17;12.40;82.30
52575;DHT22;38468;48.114;-1.684;2023-11-21T05:25:18;12.40;82.30
52575;DHT22;38468;48.114;-1.684;2023-11-21T05:27:18;12.40;82.30
52575;DHT22;38468;48.114;-1.684;2023-11-21T05:29:19;12.40;82.20
52575;DHT22;38468;48.114;-1.684;2023-11-21T05:31:20;12.40;82.30
52575;DHT22;38468;48.114;-1.684;2023-11-21T05:33:20;12.40;82.30
52575;DHT22;38468;48.114;-1.684;2023-11-21T05:35:21;12.40;82.20
52575;DHT22;38468;48.114;-1.684;2023-11-21T05:37:22;12.40;82.20
52575;DHT22;38468;48.114;-1.684;2023-11-21T05:39:23;12.40;82.20
52575;DHT22;38468;48.114;-1.684;2023-11-21T05:41:24;12.40;82.20
52575;DHT22;38468;48.114;-1.684;2023-11-21T05:43:26;12.30;82.20
52575;DHT22;38468;48.114;-1.684;2023-11-21T05:45:27;12.40;82.20
52575;DHT22;38468;48.114;-1.684;2023-11-21T05:47:30;12.40;82.30
52575;DHT22;38468;48.114;-1.684;2023-11-21T05:49:30;12.40;82.30
52575;DHT22;38468;48.114;-1.684;2023-11-21T05:51:31;12.40;82.30
52575;DHT22;38468;48.114;-1.684;2023-11-21T05:53:32;12.40;82.30
52575;DHT22;38468;48.114;-1.684;2023-11-21T05:55:32;12.40;82.30
52575;DHT22;38468;48.114;-1.684;2023-11-21T05:57:37;12.40;82.30
52575;DHT22;38468;48.114;-1.684;2023-11-21T05:59:38;12.40;82.30
52575;DHT22;38468;48.114;-1.684;2023-11-21T06:01:38;12.40;82.20
52575;DHT22;38468;48.114;-1.684;2023-11-21T06:03:39;12.40;82.30
52575;DHT22;38468;48.114;-1.684;2023-11-21T06:05:40;12.40;82.30
52575;DHT22;38468;48.114;-1.684;2023-11-21T06:07:40;12.40;82.30
52575;DHT22;38468;48.114;-1.684;2023-11-21T06:09:41;12.40;82.20
52575;DHT22;38468;48.114;-1.684;2023-11-21T06:11:42;12.50;82.20
52575;DHT22;38468;48.114;-1.684;2023-11-21T06:13:42;12.50;82.10
52575;DHT22;38468;48.114;-1.684;2023-11-21T06:15:43;12.40;82.10
52575;DHT22;38468;48.114;-1.684;2023-11-21T06:17:43;12.50;82.10
52575;DHT22;38468;48.114;-1.684;2023-11-21T06:19:44;12.40;82.10
52575;DHT22;38468;48.114;-1.684;2023-11-21T06:21:46;12.40;82.20
52575;DHT22;38468;48.114;-1.684;2023-11-21T06:23:47;12.40;82.20
52575;DHT22;38468;48.114;-1.684;2023-11-21T06:25:48;12.40;82.20
52575;DHT22;38468;48.114;-1.684;2023-11-21T06:27:50;12.40;82.10
52575;DHT22;38468;48.114;-1.684;2023-11-21T06:29:52;12.40;82.10
52575;DHT22;38468;48.114;-1.684;2023-11-21T06:31:52;12.40;82.10
52575;DHT22;38468;48.114;-1.684;2023-11-21T06:33:55;12.40;82.20
52575;DHT22;38468;48.114;-1.684;2023-11-21T06:35:56;12.40;82.20
52575;DHT22;38468;48.114;-1.684;2023-11-21T06:37:56;12.40;82.20
52575;DHT22;38468;48.114;-1.684;2023-11-21T06:39:58;12.40;82.20
52575;DHT22;38468;48.114;-1.684;2023-11-21T06:41:59;12.40;82.20
52575;DHT22;38468;48.114;-1.684;2023-11-21T06:44:00;12.40;82.20
52575;DHT22;38468;48.114;-1.684;2023-11-21T06:46:01;12.40;82.20
52575;DHT22;38468;48.114;-1.684;2023-11-21T06:48:01;12.40;82.20
52575;DHT22;38468;48.114;-1.684;2023-11-21T06:50:02;12.40;82.20
52575;DHT22;38468;48.114;-1.684;2023-11-21T06:52:03;12.40;82.20
52575;DHT22;38468;48.114;-1.684;2023-11-21T06:54:04;12.40;82.20
52575;DHT22;38468;48.114;-1.684;2023-11-21T06:56:05;12.40;82.10
52575;DHT22;38468;48.114;-1.684;2023-11-21T06:58:15;12.40;82.10
52575;DHT22;38468;48.114;-1.684;2023-11-21T07:00:17;12.40;82.20
52575;DHT22;38468;48.114;-1.684;2023-11-21T07:02:20;12.40;82.20
52575;DHT22;38468;48.114;-1.684;2023-11-21T07:04:21;12.30;82.10
52575;DHT22;38468;48.114;-1.684;2023-11-21T07:06:21;12.40;82.10
52575;DHT22;38468;48.114;-1.684;2023-11-21T07:08:22;12.40;82.10
52575;DHT22;38468;48.114;-1.684;2023-11-21T07:10:23;12.40;82.10
52575;DHT22;38468;48.114;-1.684;2023-11-21T07:12:23;12.30;82.10
52575;DHT22;38468;48.114;-1.684;2023-11-21T07:14:26;12.30;82.10
52575;DHT22;38468;48.114;-1.684;2023-11-21T07:16:26;12.30;82.00
52575;DHT22;38468;48.114;-1.684;2023-11-21T07:18:27;12.30;82.10
52575;DHT22;38468;48.114;-1.684;2023-11-21T07:20:27;12.30;82.10
52575;DHT22;38468;48.114;-1.684;2023-11-21T07:22:30;12.30;82.10
52575;DHT22;38468;48.114;-1.684;2023-11-21T07:24:31;12.30;82.10
52575;DHT22;38468;48.114;-1.684;2023-11-21T07:26:33;12.30;82.20
52575;DHT22;38468;48.114;-1.684;2023-11-21T07:28:34;12.30;82.20
52575;DHT22;38468;48.114;-1.684;2023-11-21T07:30:34;12.30;82.20
52575;DHT22;38468;48.114;-1.684;2023-11-21T07:32:35;12.30;82.20
52575;DHT22;38468;48.114;-1.684;2023-11-21T07:34:36;12.30;82.30
52575;DHT22;38468;48.114;-1.684;2023-11-21T07:36:37;12.40;82.30
52575;DHT22;38468;48.114;-1.684;2023-11-21T07:38:37;12.40;82.30
52575;DHT22;38468;48.114;-1.684;2023-11-21T07:40:38;12.40;82.30
52575;DHT22;38468;48.114;-1.684;2023-11-21T07:42:38;12.40;82.30
52575;DHT22;38468;48.114;-1.684;2023-11-21T07:44:39;12.40;82.30
52575;DHT22;38468;48.114;-1.684;2023-11-21T07:46:40;12.40;82.30
52575;DHT22;38468;48.114;-1.684;2023-11-21T07:48:41;12.40;82.40
52575;DHT22;38468;48.114;-1.684;2023-11-21T07:50:47;12.40;82.30
52575;DHT22;38468;48.114;-1.684;2023-11-21T07:52:48;12.40;82.30
52575;DHT22;38468;48.114;-1.684;2023-11-21T07:54:50;12.40;82.30
52575;DHT22;38468;48.114;-1.684;2023-11-21T07:56:51;12.30;82.30
52575;DHT22;38468;48.114;-1.684;2023-11-21T07:58:51;12.30;82.40
52575;DHT22;38468;48.114;-1.684;2023-11-21T08:00:52;12.40;82.50
52575;DHT22;38468;48.114;-1.684;2023-11-21T08:02:53;12.40;82.50
52575;DHT22;38468;48.114;-1.684;2023-11-21T08:04:53;12.40;82.50
52575;DHT22;38468;48.114;-1.684;2023-11-21T08:06:54;12.40;82.40
52575;DHT22;38468;48.114;-1.684;2023-11-21T08:08:55;12.40;82.40
52575;DHT22;38468;48.114;-1.684;2023-11-21T08:10:55;12.40;82.40
52575;DHT22;38468;48.114;-1.684;2023-11-21T08:12:59;12.40;82.30
52575;DHT22;38468;48.114;-1.684;2023-11-21T08:14:59;12.40;82.30
52575;DHT22;38468;48.114;-1.684;2023-11-21T08:17:00;12.50;82.30
52575;DHT22;38468;48.114;-1.684;2023-11-21T08:19:01;12.50;82.40
52575;DHT22;38468;48.114;-1.684;2023-11-21T08:21:03;12.50;82.50
52575;DHT22;38468;48.114;-1.684;2023-11-21T08:23:05;12.50;82.60
52575;DHT22;38468;48.114;-1.684;2023-11-21T08:25:06;12.60;82.60
52575;DHT22;38468;48.114;-1.684;2023-11-21T08:27:08;12.60;82.60
52575;DHT22;38468;48.114;-1.684;2023-11-21T08:29:09;12.60;82.60
52575;DHT22;38468;48.114;-1.684;2023-11-21T08:31:10;12.70;82.70
52575;DHT22;38468;48.114;-1.684;2023-11-21T08:33:11;12.90;83.30
52575;DHT22;38468;48.114;-1.684;2023-11-21T08:35:12;13.30;84.10
52575;DHT22;38468;48.114;-1.684;2023-11-21T08:37:14;13.50;84.00
52575;DHT22;38468;48.114;-1.684;2023-11-21T08:39:15;13.70;83.60
52575;DHT22;38468;48.114;-1.684;2023-11-21T08:41:19;13.90;83.80
52575;DHT22;38468;48.114;-1.684;2023-11-21T08:43:21;14.00;83.10
52575;DHT22;38468;48.114;-1.684;2023-11-21T08:45:22;13.90;82.40
52575;DHT22;38468;48.114;-1.684;2023-11-21T08:47:23;13.80;82.00
52575;DHT22;38468;48.114;-1.684;2023-11-21T08:49:24;13.70;81.80
52575;DHT22;38468;48.114;-1.684;2023-11-21T08:51:28;13.60;81.70
52575;DHT22;38468;48.114;-1.684;2023-11-21T08:53:28;13.50;81.70
52575;DHT22;38468;48.114;-1.684;2023-11-21T08:55:29;13.50;82.20
52575;DHT22;38468;48.114;-1.684;2023-11-21T08:57:29;14.10;83.90
52575;DHT22;38468;48.114;-1.684;2023-11-21T08:59:30;14.70;84.50
52575;DHT22;38468;48.114;-1.684;2023-11-21T09:01:31;15.00;83.80
52575;DHT22;38468;48.114;-1.684;2023-11-21T09:03:33;15.20;83.20
52575;DHT22;38468;48.114;-1.684;2023-11-21T09:05:37;15.60;83.70
52575;DHT22;38468;48.114;-1.684;2023-11-21T09:07:40;16.30;84.40
52575;DHT22;38468;48.114;-1.684;2023-11-21T09:09:41;17.00;83.80
52575;DHT22;38468;48.114;-1.684;2023-11-21T09:11:42;17.30;82.50
52575;DHT22;38468;48.114;-1.684;2023-11-21T09:13:44;17.30;79.90
52575;DHT22;38468;48.114;-1.684;2023-11-21T09:15:45;16.90;78.10
52575;DHT22;38468;48.114;-1.684;2023-11-21T09:17:47;16.80;79.10
52575;DHT22;38468;48.114;-1.684;2023-11-21T09:19:47;17.00;80.10
52575;DHT22;38468;48.114;-1.684;2023-11-21T09:21:51;17.80;81.80
52575;DHT22;38468;48.114;-1.684;2023-11-21T09:23:52;18.50;81.40
52575;DHT22;38468;48.114;-1.684;2023-11-21T09:25:53;18.80;78.90
52575;DHT22;38468;48.114;-1.684;2023-11-21T09:27:57;18.80;77.40
52575;DHT22;38468;48.114;-1.684;2023-11-21T09:29:58;18.90;77.20
52575;DHT22;38468;48.114;-1.684;2023-11-21T09:31:59;18.90;76.80
52575;DHT22;38468;48.114;-1.684;2023-11-21T09:33:59;18.80;75.50
52575;DHT22;38468;48.114;-1.684;2023-11-21T09:36:00;18.40;74.00
52575;DHT22;38468;48.114;-1.684;2023-11-21T09:38:01;18.00;74.40
52575;DHT22;38468;48.114;-1.684;2023-11-21T09:40:10;18.00;75.10
52575;DHT22;38468;48.114;-1.684;2023-11-21T09:42:17;18.00;75.20
52575;DHT22;38468;48.114;-1.684;2023-11-21T09:44:27;17.90;74.70
52575;DHT22;38468;48.114;-1.684;2023-11-21T09:46:31;17.60;74.00
52575;DHT22;38468;48.114;-1.684;2023-11-21T09:48:32;17.50;74.30
52575;DHT22;38468;48.114;-1.684;2023-11-21T09:50:36;17.50;74.70
52575;DHT22;38468;48.114;-1.684;2023-11-21T09:55:02;18.10;76.60
52575;DHT22;38468;48.114;-1.684;2023-11-21T09:57:02;18.60;75.80
52575;DHT22;38468;48.114;-1.684;2023-11-21T09:59:05;18.90;75.40
52575;DHT22;38468;48.114;-1.684;2023-11-21T10:01:08;19.30;74.70
52575;DHT22;38468;48.114;-1.684;2023-11-21T10:03:10;19.50;73.60
52575;DHT22;38468;48.114;-1.684;2023-11-21T10:05:12;19.40;71.60
52575;DHT22;38468;48.114;-1.684;2023-11-21T10:07:16;19.10;71.10
52575;DHT22;38468;48.114;-1.684;2023-11-21T10:09:18;18.90;70.80
52575;DHT22;38468;48.114;-1.684;2023-11-21T10:11:23;18.50;70.10
52575;DHT22;38468;48.114;-1.684;2023-11-21T10:13:27;18.20;69.90
52575;DHT22;38468;48.114;-1.684;2023-11-21T10:15:31;17.90;70.10
52575;DHT22;38468;48.114;-1.684;2023-11-21T10:17:32;17.60;70.20
52575;DHT22;38468;48.114;-1.684;2023-11-21T10:19:39;17.50;70.50
52575;DHT22;38468;48.114;-1.684;2023-11-21T10:21:40;17.40;70.90
52575;DHT22;38468;48.114;-1.684;2023-11-21T10:23:41;17.40;71.40
52575;DHT22;38468;48.114;-1.684;2023-11-21T10:25:43;17.40;71.60
52575;DHT22;38468;48.114;-1.684;2023-11-21T10:27:47;17.40;71.20
52575;DHT22;38468;48.114;-1.684;2023-11-21T10:29:51;17.30;70.70
52575;DHT22;38468;48.114;-1.684;2023-11-21T10:31:52;17.10;70.40
52575;DHT22;38468;48.114;-1.684;2023-11-21T10:34:10;16.90;69.80
52575;DHT22;38468;48.114;-1.684;2023-11-21T10:36:11;16.60;69.70
52575;DHT22;38468;48.114;-1.684;2023-11-21T10:38:11;16.40;69.90
52575;DHT22;38468;48.114;-1.684;2023-11-21T10:40:14;16.20;70.10
52575;DHT22;38468;48.114;-1.684;2023-11-21T10:42:18;16.10;70.20
52575;DHT22;38468;48.114;-1.684;2023-11-21T10:44:21;16.00;70.20
52575;DHT22;38468;48.114;-1.684;2023-11-21T10:46:23;16.00;70.20
52575;DHT22;38468;48.114;-1.684;2023-11-21T10:48:24;15.90;70.30
52575;DHT22;38468;48.114;-1.684;2023-11-21T10:50:25;15.80;70.40
52575;DHT22;38468;48.114;-1.684;2023-11-21T10:52:27;15.80;70.50
52575;DHT22;38468;48.114;-1.684;2023-11-21T10:54:27;15.70;70.50
52575;DHT22;38468;48.114;-1.684;2023-11-21T10:56:28;15.70;70.50
52575;DHT22;38468;48.114;-1.684;2023-11-21T10:58:30;15.50;70.30
52575;DHT22;38468;48.114;-1.684;2023-11-21T11:00:33;15.50;70.40
52575;DHT22;38468;48.114;-1.684;2023-11-21T11:02:34;15.50;70.60
52575;DHT22;38468;48.114;-1.684;2023-11-21T11:04:35;15.50;70.60
52575;DHT22;38468;48.114;-1.684;2023-11-21T11:06:38;15.50;70.60
52575;DHT22;38468;48.114;-1.684;2023-11-21T11:08:39;15.30;70.70
52575;DHT22;38468;48.114;-1.684;2023-11-21T11:10:40;15.30;70.70
52575;DHT22;38468;48.114;-1.684;2023-11-21T11:12:41;15.20;71.00
52575;DHT22;38468;48.114;-1.684;2023-11-21T11:14:42;15.20;70.90
52575;DHT22;38468;48.114;-1.684;2023-11-21T11:16:44;15.20;71.00
52575;DHT22;38468;48.114;-1.684;2023-11-21T11:18:45;15.10;71.10
52575;DHT22;38468;48.114;-1.684;2023-11-21T11:20:48;15.10;71.20
52575;DHT22;38468;48.114;-1.684;2023-11-21T11:27:34;15.00;71.30
52575;DHT22;38468;48.114;-1.684;2023-11-21T11:29:50;14.90;71.30
52575;DHT22;38468;48.114;-1.684;2023-11-21T11:32:16;14.90;71.30
52575;DHT22;38468;48.114;-1.684;2023-11-21T11:34:29;14.90;71.40
52575;DHT22;38468;48.114;-1.684;2023-11-21T11:36:34;14.90;71.60
52575;DHT22;38468;48.114;-1.684;2023-11-21T11:38:36;14.90;71.80
52575;DHT22;38468;48.114;-1.684;2023-11-21T11:43:01;15.00;71.90
52575;DHT22;38468;48.114;-1.684;2023-11-21T11:45:25;15.10;72.00
52575;DHT22;38468;48.114;-1.684;2023-11-21T11:47:32;15.10;72.00
52575;DHT22;38468;48.114;-1.684;2023-11-21T11:49:33;15.10;72.10
52575;DHT22;38468;48.114;-1.684;2023-11-21T11:51:34;15.10;72.10
52575;DHT22;38468;48.114;-1.684;2023-11-21T11:53:38;15.00;72.10
52575;DHT22;38468;48.114;-1.684;2023-11-21T11:55:40;15.10;72.20
52575;DHT22;38468;48.114;-1.684;2023-11-21T11:57:42;15.10;72.30
52575;DHT22;38468;48.114;-1.684;2023-11-21T12:00:16;15.20;72.40
52575;DHT22;38468;48.114;-1.684;2023-11-21T12:02:23;15.30;72.40
52575;DHT22;38468;48.114;-1.684;2023-11-21T12:04:24;15.40;72.40
52575;DHT22;38468;48.114;-1.684;2023-11-21T12:06:33;15.40;72.40
52575;DHT22;38468;48.114;-1.684;2023-11-21T12:08:35;15.40;72.60
52575;DHT22;38468;48.114;-1.684;2023-11-21T12:10:37;15.50;72.50
52575;DHT22;38468;48.114;-1.684;2023-11-21T12:12:42;15.50;72.30
52575;DHT22;38468;48.114;-1.684;2023-11-21T12:14:44;15.50;72.10
52575;DHT22;38468;48.114;-1.684;2023-11-21T12:16:45;15.40;72.00
52575;DHT22;38468;48.114;-1.684;2023-11-21T12:18:46;15.40;72.00
52575;DHT22;38468;48.114;-1.684;2023-11-21T12:20:47;15.30;71.90
52575;DHT22;38468;48.114;-1.684;2023-11-21T12:22:55;15.20;71.90
52575;DHT22;38468;48.114;-1.684;2023-11-21T12:24:55;15.20;72.10
52575;DHT22;38468;48.114;-1.684;2023-11-21T12:26:56;15.20;72.10
52575;DHT22;38468;48.114;-1.684;2023-11-21T12:28:57;15.20;72.20
52575;DHT22;38468;48.114;-1.684;2023-11-21T12:30:57;15.20;72.10
52575;DHT22;38468;48.114;-1.684;2023-11-21T12:32:59;15.20;72.20
52575;DHT22;38468;48.114;-1.684;2023-11-21T12:35:01;15.10;72.10
52575;DHT22;38468;48.114;-1.684;2023-11-21T12:37:03;15.10;72.00
52575;DHT22;38468;48.114;-1.684;2023-11-21T12:39:04;15.10;72.10
52575;DHT22;38468;48.114;-1.684;2023-11-21T12:41:06;15.10;72.10
52575;DHT22;38468;48.114;-1.684;2023-11-21T12:43:07;15.20;72.00
52575;DHT22;38468;48.114;-1.684;2023-11-21T12:47:19;15.00;72.00